sensor_id;sensor_type;location;lat;lon;timestamp;P1;durP1;ratioP1;P2;durP2;ratioP2
6348;SDS011;3207;42.648;23.406;2023-02-01T00:00:28;37.67;;;18.93;;
6348;SDS011;3207;42.648;23.406;2023-02-01T00:02:54;30.80;;;18.53;;
6348;SDS011;3207;42.648;23.406;2023-02-01T00:05:23;34.37;;;19.80;;
6348;SDS011;3207;42.648;23.406;2023-02-01T00:07:49;36.80;;;19.97;;
6348;SDS011;3207;42.648;23.406;2023-02-01T00:10:16;35.53;;;20.10;;
6348;SDS011;3207;42.648;23.406;2023-02-01T00:12:43;31.83;;;19.40;;
6348;SDS011;3207;42.648;23.406;2023-02-01T00:15:10;36.97;;;21.63;;
6348;SDS011;3207;42.648;23.406;2023-02-01T00:17:38;32.97;;;20.03;;
6348;SDS011;3207;42.648;23.406;2023-02-01T00:20:05;30.63;;;19.67;;
6348;SDS011;3207;42.648;23.406;2023-02-01T00:22:34;33.53;;;19.90;;
6348;SDS011;3207;42.648;23.406;2023-02-01T00:25:01;37.97;;;21.13;;
6348;SDS011;3207;42.648;23.406;2023-02-01T00:27:28;33.37;;;20.43;;
6348;SDS011;3207;42.648;23.406;2023-02-01T00:29:54;36.83;;;21.13;;
6348;SDS011;3207;42.648;23.406;2023-02-01T00:32:21;35.00;;;21.60;;
6348;SDS011;3207;42.648;23.406;2023-02-01T00:34:48;38.93;;;23.90;;
6348;SDS011;3207;42.648;23.406;2023-02-01T00:37:15;38.33;;;24.40;;
6348;SDS011;3207;42.648;23.406;2023-02-01T00:39:43;37.33;;;23.67;;
6348;SDS011;3207;42.648;23.406;2023-02-01T00:42:10;47.27;;;26.03;;
6348;SDS011;3207;42.648;23.406;2023-02-01T00:44:37;41.37;;;25.10;;
6348;SDS011;3207;42.648;23.406;2023-02-01T00:47:04;44.73;;;23.40;;
6348;SDS011;3207;42.648;23.406;2023-02-01T00:49:31;39.23;;;24.27;;
6348;SDS011;3207;42.648;23.406;2023-02-01T00:51:57;38.17;;;23.93;;
6348;SDS011;3207;42.648;23.406;2023-02-01T00:54:24;40.90;;;24.47;;
6348;SDS011;3207;42.648;23.406;2023-02-01T00:56:52;39.67;;;23.87;;
6348;SDS011;3207;42.648;23.406;2023-02-01T00:59:19;37.53;;;22.80;;
6348;SDS011;3207;42.648;23.406;2023-02-01T01:01:46;42.70;;;23.90;;
6348;SDS011;3207;42.648;23.406;2023-02-01T01:04:13;38.17;;;23.47;;
6348;SDS011;3207;42.648;23.406;2023-02-01T01:06:40;41.63;;;25.27;;
6348;SDS011;3207;42.648;23.406;2023-02-01T01:09:07;42.97;;;23.77;;
6348;SDS011;3207;42.648;23.406;2023-02-01T01:11:34;36.27;;;21.43;;
6348;SDS011;3207;42.648;23.406;2023-02-01T01:14:05;42.10;;;25.53;;
6348;SDS011;3207;42.648;23.406;2023-02-01T01:16:33;43.40;;;23.30;;
6348;SDS011;3207;42.648;23.406;2023-02-01T01:19:00;45.43;;;24.87;;
6348;SDS011;3207;42.648;23.406;2023-02-01T01:21:27;36.67;;;21.30;;
6348;SDS011;3207;42.648;23.406;2023-02-01T01:23:54;35.57;;;21.53;;
6348;SDS011;3207;42.648;23.406;2023-02-01T01:26:22;35.20;;;20.10;;
6348;SDS011;3207;42.648;23.406;2023-02-01T01:28:50;34.63;;;20.10;;
6348;SDS011;3207;42.648;23.406;2023-02-01T01:31:19;31.30;;;19.27;;
6348;SDS011;3207;42.648;23.406;2023-02-01T01:33:47;32.53;;;19.17;;
6348;SDS011;3207;42.648;23.406;2023-02-01T01:36:15;28.40;;;18.17;;
6348;SDS011;3207;42.648;23.406;2023-02-01T01:38:42;33.07;;;19.63;;
6348;SDS011;3207;42.648;23.406;2023-02-01T01:41:12;32.73;;;20.03;;
6348;SDS011;3207;42.648;23.406;2023-02-01T01:43:45;25.33;;;16.87;;
6348;SDS011;3207;42.648;23.406;2023-02-01T01:46:20;28.97;;;17.33;;
6348;SDS011;3207;42.648;23.406;2023-02-01T01:48:49;35.50;;;20.57;;
6348;SDS011;3207;42.648;23.406;2023-02-01T01:51:20;36.10;;;18.83;;
6348;SDS011;3207;42.648;23.406;2023-02-01T01:53:53;33.27;;;19.20;;
6348;SDS011;3207;42.648;23.406;2023-02-01T01:56:24;28.50;;;17.70;;
6348;SDS011;3207;42.648;23.406;2023-02-01T01:58:53;36.13;;;19.53;;
6348;SDS011;3207;42.648;23.406;2023-02-01T02:01:22;32.57;;;19.50;;
6348;SDS011;3207;42.648;23.406;2023-02-01T02:03:49;34.03;;;19.47;;
6348;SDS011;3207;42.648;23.406;2023-02-01T02:06:20;31.13;;;19.20;;
6348;SDS011;3207;42.648;23.406;2023-02-01T02:08:54;34.10;;;19.87;;
6348;SDS011;3207;42.648;23.406;2023-02-01T02:11:21;41.13;;;20.53;;
6348;SDS011;3207;42.648;23.406;2023-02-01T02:13:48;31.67;;;18.70;;
6348;SDS011;3207;42.648;23.406;2023-02-01T02:16:31;36.90;;;20.30;;
6348;SDS011;3207;42.648;23.406;2023-02-01T02:19:22;34.70;;;19.47;;
6348;SDS011;3207;42.648;23.406;2023-02-01T02:22:12;36.60;;;21.57;;
6348;SDS011;3207;42.648;23.406;2023-02-01T02:25:03;35.47;;;20.60;;
6348;SDS011;3207;42.648;23.406;2023-02-01T02:28:04;39.07;;;20.33;;
6348;SDS011;3207;42.648;23.406;2023-02-01T02:30:52;33.33;;;19.17;;
6348;SDS011;3207;42.648;23.406;2023-02-01T02:33:39;35.90;;;19.00;;
6348;SDS011;3207;42.648;23.406;2023-02-01T02:36:16;37.70;;;18.73;;
6348;SDS011;3207;42.648;23.406;2023-02-01T02:38:47;33.67;;;18.37;;
6348;SDS011;3207;42.648;23.406;2023-02-01T02:41:19;30.50;;;18.73;;
6348;SDS011;3207;42.648;23.406;2023-02-01T02:47:16;28.77;;;18.03;;
6348;SDS011;3207;42.648;23.406;2023-02-01T02:49:54;28.03;;;17.60;;
6348;SDS011;3207;42.648;23.406;2023-02-01T02:52:44;28.97;;;18.17;;
6348;SDS011;3207;42.648;23.406;2023-02-01T02:55:36;35.43;;;19.23;;
6348;SDS011;3207;42.648;23.406;2023-02-01T02:58:05;29.80;;;17.97;;
6348;SDS011;3207;42.648;23.406;2023-02-01T03:00:52;33.93;;;18.63;;
6348;SDS011;3207;42.648;23.406;2023-02-01T03:03:38;28.37;;;16.27;;
6348;SDS011;3207;42.648;23.406;2023-02-01T03:06:24;35.37;;;19.30;;
6348;SDS011;3207;42.648;23.406;2023-02-01T03:08:52;33.33;;;18.80;;
6348;SDS011;3207;42.648;23.406;2023-02-01T03:11:22;29.77;;;17.67;;
6348;SDS011;3207;42.648;23.406;2023-02-01T03:14:10;32.43;;;18.97;;
6348;SDS011;3207;42.648;23.406;2023-02-01T03:16:39;30.03;;;17.57;;
6348;SDS011;3207;42.648;23.406;2023-02-01T03:19:12;26.43;;;16.63;;
6348;SDS011;3207;42.648;23.406;2023-02-01T03:21:45;28.83;;;16.87;;
6348;SDS011;3207;42.648;23.406;2023-02-01T03:24:16;24.73;;;16.93;;
6348;SDS011;3207;42.648;23.406;2023-02-01T03:26:46;29.80;;;17.33;;
6348;SDS011;3207;42.648;23.406;2023-02-01T03:29:17;28.23;;;15.87;;
6348;SDS011;3207;42.648;23.406;2023-02-01T03:31:48;27.50;;;16.03;;
6348;SDS011;3207;42.648;23.406;2023-02-01T03:34:15;26.80;;;16.90;;
6348;SDS011;3207;42.648;23.406;2023-02-01T03:36:46;26.37;;;15.67;;
6348;SDS011;3207;42.648;23.406;2023-02-01T03:39:19;26.50;;;14.53;;
6348;SDS011;3207;42.648;23.406;2023-02-01T03:41:52;26.50;;;15.23;;
6348;SDS011;3207;42.648;23.406;2023-02-01T03:44:22;24.63;;;14.70;;
6348;SDS011;3207;42.648;23.406;2023-02-01T03:46:52;24.43;;;15.17;;
6348;SDS011;3207;42.648;23.406;2023-02-01T03:49:23;22.63;;;13.27;;
6348;SDS011;3207;42.648;23.406;2023-02-01T03:51:55;25.70;;;15.43;;
6348;SDS011;3207;42.648;23.406;2023-02-01T03:54:24;28.87;;;15.97;;
6348;SDS011;3207;42.648;23.406;2023-02-01T03:56:54;31.30;;;15.20;;
6348;SDS011;3207;42.648;23.406;2023-02-01T03:59:24;27.10;;;14.90;;
6348;SDS011;3207;42.648;23.406;2023-02-01T04:01:50;26.93;;;15.13;;
6348;SDS011;3207;42.648;23.406;2023-02-01T04:04:18;32.10;;;16.80;;
6348;SDS011;3207;42.648;23.406;2023-02-01T04:06:46;21.27;;;13.20;;
6348;SDS011;3207;42.648;23.406;2023-02-01T04:09:14;22.37;;;14.73;;
6348;SDS011;3207;42.648;23.406;2023-02-01T04:11:41;27.63;;;15.37;;
6348;SDS011;3207;42.648;23.406;2023-02-01T04:14:08;27.07;;;14.93;;
6348;SDS011;3207;42.648;23.406;2023-02-01T04:16:35;27.00;;;14.53;;
6348;SDS011;3207;42.648;23.406;2023-02-01T04:19:02;23.00;;;14.03;;
6348;SDS011;3207;42.648;23.406;2023-02-01T04:21:29;25.60;;;14.93;;
6348;SDS011;3207;42.648;23.406;2023-02-01T04:23:56;30.40;;;15.43;;
6348;SDS011;3207;42.648;23.406;2023-02-01T04:26:24;22.90;;;14.57;;
6348;SDS011;3207;42.648;23.406;2023-02-01T04:28:51;26.83;;;16.23;;
6348;SDS011;3207;42.648;23.406;2023-02-01T04:31:18;23.90;;;14.10;;
6348;SDS011;3207;42.648;23.406;2023-02-01T04:33:50;26.63;;;15.50;;
6348;SDS011;3207;42.648;23.406;2023-02-01T04:36:17;23.63;;;14.73;;
6348;SDS011;3207;42.648;23.406;2023-02-01T04:38:46;25.57;;;14.20;;
6348;SDS011;3207;42.648;23.406;2023-02-01T04:41:13;26.80;;;15.23;;
6348;SDS011;3207;42.648;23.406;2023-02-01T04:43:42;22.13;;;13.30;;
6348;SDS011;3207;42.648;23.406;2023-02-01T04:46:08;26.33;;;14.30;;
6348;SDS011;3207;42.648;23.406;2023-02-01T04:48:35;23.20;;;14.20;;
6348;SDS011;3207;42.648;23.406;2023-02-01T04:51:02;21.23;;;14.13;;
6348;SDS011;3207;42.648;23.406;2023-02-01T04:53:29;22.00;;;13.63;;
6348;SDS011;3207;42.648;23.406;2023-02-01T04:55:56;23.53;;;13.50;;
6348;SDS011;3207;42.648;23.406;2023-02-01T04:58:23;26.33;;;13.57;;
6348;SDS011;3207;42.648;23.406;2023-02-01T05:00:51;21.10;;;12.83;;
6348;SDS011;3207;42.648;23.406;2023-02-01T05:03:18;27.17;;;14.57;;
6348;SDS011;3207;42.648;23.406;2023-02-01T05:05:46;24.20;;;14.17;;
6348;SDS011;3207;42.648;23.406;2023-02-01T05:08:13;21.37;;;12.23;;
6348;SDS011;3207;42.648;23.406;2023-02-01T05:10:40;20.03;;;11.20;;
6348;SDS011;3207;42.648;23.406;2023-02-01T05:13:07;20.67;;;12.37;;
6348;SDS011;3207;42.648;23.406;2023-02-01T05:15:53;20.40;;;12.73;;
6348;SDS011;3207;42.648;23.406;2023-02-01T05:18:20;22.57;;;13.50;;
6348;SDS011;3207;42.648;23.406;2023-02-01T05:20:47;19.97;;;11.93;;
6348;SDS011;3207;42.648;23.406;2023-02-01T05:23:13;23.53;;;13.20;;
6348;SDS011;3207;42.648;23.406;2023-02-01T05:25:40;19.43;;;11.73;;
6348;SDS011;3207;42.648;23.406;2023-02-01T05:28:07;17.87;;;12.53;;
6348;SDS011;3207;42.648;23.406;2023-02-01T05:30:34;20.00;;;11.87;;
6348;SDS011;3207;42.648;23.406;2023-02-01T05:33:02;25.83;;;13.10;;
6348;SDS011;3207;42.648;23.406;2023-02-01T05:35:29;19.03;;;11.60;;
6348;SDS011;3207;42.648;23.406;2023-02-01T05:37:56;23.33;;;12.77;;
6348;SDS011;3207;42.648;23.406;2023-02-01T05:40:23;20.03;;;12.27;;
6348;SDS011;3207;42.648;23.406;2023-02-01T05:42:50;20.50;;;12.13;;
6348;SDS011;3207;42.648;23.406;2023-02-01T05:45:17;18.40;;;12.27;;
6348;SDS011;3207;42.648;23.406;2023-02-01T05:47:44;23.83;;;12.70;;
6348;SDS011;3207;42.648;23.406;2023-02-01T05:50:12;21.70;;;12.17;;
6348;SDS011;3207;42.648;23.406;2023-02-01T05:52:39;21.53;;;12.97;;
6348;SDS011;3207;42.648;23.406;2023-02-01T05:55:06;19.10;;;12.77;;
6348;SDS011;3207;42.648;23.406;2023-02-01T05:57:34;25.17;;;13.70;;
6348;SDS011;3207;42.648;23.406;2023-02-01T06:00:00;22.80;;;13.37;;
6348;SDS011;3207;42.648;23.406;2023-02-01T06:02:28;29.87;;;15.03;;
6348;SDS011;3207;42.648;23.406;2023-02-01T06:04:55;22.50;;;13.07;;
6348;SDS011;3207;42.648;23.406;2023-02-01T06:07:23;27.67;;;15.20;;
6348;SDS011;3207;42.648;23.406;2023-02-01T06:09:50;23.63;;;13.57;;
6348;SDS011;3207;42.648;23.406;2023-02-01T06:12:16;20.83;;;12.87;;
6348;SDS011;3207;42.648;23.406;2023-02-01T06:14:43;21.23;;;12.43;;
6348;SDS011;3207;42.648;23.406;2023-02-01T06:17:10;23.33;;;13.73;;
6348;SDS011;3207;42.648;23.406;2023-02-01T06:19:37;23.87;;;13.53;;
6348;SDS011;3207;42.648;23.406;2023-02-01T06:22:05;20.97;;;12.97;;
6348;SDS011;3207;42.648;23.406;2023-02-01T06:24:33;21.17;;;12.60;;
6348;SDS011;3207;42.648;23.406;2023-02-01T06:27:00;26.27;;;12.80;;
6348;SDS011;3207;42.648;23.406;2023-02-01T06:29:27;24.10;;;12.67;;
6348;SDS011;3207;42.648;23.406;2023-02-01T06:31:54;22.57;;;13.20;;
6348;SDS011;3207;42.648;23.406;2023-02-01T06:34:20;24.80;;;12.37;;
6348;SDS011;3207;42.648;23.406;2023-02-01T06:36:48;23.50;;;12.90;;
6348;SDS011;3207;42.648;23.406;2023-02-01T06:39:15;22.73;;;13.60;;
6348;SDS011;3207;42.648;23.406;2023-02-01T06:41:44;25.00;;;13.77;;
6348;SDS011;3207;42.648;23.406;2023-02-01T06:44:12;27.13;;;13.60;;
6348;SDS011;3207;42.648;23.406;2023-02-01T06:46:40;22.60;;;12.97;;
6348;SDS011;3207;42.648;23.406;2023-02-01T06:49:06;22.70;;;13.70;;
6348;SDS011;3207;42.648;23.406;2023-02-01T06:51:34;27.40;;;13.43;;
6348;SDS011;3207;42.648;23.406;2023-02-01T06:54:01;28.43;;;13.07;;
6348;SDS011;3207;42.648;23.406;2023-02-01T06:56:28;22.67;;;12.87;;
6348;SDS011;3207;42.648;23.406;2023-02-01T06:58:57;24.63;;;12.60;;
6348;SDS011;3207;42.648;23.406;2023-02-01T07:01:25;23.60;;;13.33;;
6348;SDS011;3207;42.648;23.406;2023-02-01T07:03:52;18.50;;;12.53;;
6348;SDS011;3207;42.648;23.406;2023-02-01T07:06:19;26.70;;;15.03;;
6348;SDS011;3207;42.648;23.406;2023-02-01T07:08:46;20.40;;;13.63;;
6348;SDS011;3207;42.648;23.406;2023-02-01T07:11:14;22.53;;;15.87;;
6348;SDS011;3207;42.648;23.406;2023-02-01T07:13:42;22.80;;;14.40;;
6348;SDS011;3207;42.648;23.406;2023-02-01T07:16:11;21.73;;;14.03;;
6348;SDS011;3207;42.648;23.406;2023-02-01T07:18:39;24.17;;;14.77;;
6348;SDS011;3207;42.648;23.406;2023-02-01T07:21:06;26.90;;;17.60;;
6348;SDS011;3207;42.648;23.406;2023-02-01T07:23:33;34.08;;;17.73;;
6348;SDS011;3207;42.648;23.406;2023-02-01T07:26:00;24.65;;;14.88;;
6348;SDS011;3207;42.648;23.406;2023-02-01T07:28:30;22.45;;;15.07;;
6348;SDS011;3207;42.648;23.406;2023-02-01T07:31:01;21.70;;;15.07;;
6348;SDS011;3207;42.648;23.406;2023-02-01T07:33:30;21.40;;;16.08;;
6348;SDS011;3207;42.648;23.406;2023-02-01T07:35:57;28.98;;;14.20;;
6348;SDS011;3207;42.648;23.406;2023-02-01T07:38:27;23.58;;;16.38;;
6348;SDS011;3207;42.648;23.406;2023-02-01T07:40:56;17.27;;;13.93;;
6348;SDS011;3207;42.648;23.406;2023-02-01T07:43:24;17.73;;;14.73;;
6348;SDS011;3207;42.648;23.406;2023-02-01T07:45:51;19.85;;;16.23;;
6348;SDS011;3207;42.648;23.406;2023-02-01T07:48:19;22.35;;;18.02;;
6348;SDS011;3207;42.648;23.406;2023-02-01T07:50:47;16.05;;;14.27;;
6348;SDS011;3207;42.648;23.406;2023-02-01T07:53:14;18.90;;;16.05;;
6348;SDS011;3207;42.648;23.406;2023-02-01T07:55:41;19.00;;;16.90;;
6348;SDS011;3207;42.648;23.406;2023-02-01T07:58:08;20.70;;;18.48;;
6348;SDS011;3207;42.648;23.406;2023-02-01T08:00:35;21.08;;;18.90;;
6348;SDS011;3207;42.648;23.406;2023-02-01T08:03:27;27.15;;;19.25;;
6348;SDS011;3207;42.648;23.406;2023-02-01T08:05:55;26.35;;;21.88;;
6348;SDS011;3207;42.648;23.406;2023-02-01T08:08:23;23.73;;;20.88;;
6348;SDS011;3207;42.648;23.406;2023-02-01T08:10:49;27.35;;;22.05;;
6348;SDS011;3207;42.648;23.406;2023-02-01T08:13:16;28.15;;;21.90;;
6348;SDS011;3207;42.648;23.406;2023-02-01T08:15:43;29.85;;;21.70;;
6348;SDS011;3207;42.648;23.406;2023-02-01T08:18:10;26.80;;;22.20;;
6348;SDS011;3207;42.648;23.406;2023-02-01T08:20:41;28.30;;;21.95;;
6348;SDS011;3207;42.648;23.406;2023-02-01T08:23:12;25.30;;;22.38;;
6348;SDS011;3207;42.648;23.406;2023-02-01T08:25:38;34.53;;;24.50;;
6348;SDS011;3207;42.648;23.406;2023-02-01T08:28:05;26.70;;;21.83;;
6348;SDS011;3207;42.648;23.406;2023-02-01T08:30:33;22.20;;;19.90;;
6348;SDS011;3207;42.648;23.406;2023-02-01T08:32:59;20.65;;;18.60;;
6348;SDS011;3207;42.648;23.406;2023-02-01T08:35:27;21.73;;;19.42;;
6348;SDS011;3207;42.648;23.406;2023-02-01T08:37:54;22.90;;;18.17;;
6348;SDS011;3207;42.648;23.406;2023-02-01T08:40:22;25.88;;;23.38;;
6348;SDS011;3207;42.648;23.406;2023-02-01T08:42:49;28.15;;;24.40;;
6348;SDS011;3207;42.648;23.406;2023-02-01T08:45:19;26.17;;;23.52;;
6348;SDS011;3207;42.648;23.406;2023-02-01T08:47:47;23.98;;;20.45;;
6348;SDS011;3207;42.648;23.406;2023-02-01T08:50:14;36.67;;;32.72;;
6348;SDS011;3207;42.648;23.406;2023-02-01T08:52:41;31.73;;;28.25;;
6348;SDS011;3207;42.648;23.406;2023-02-01T08:55:08;28.88;;;25.83;;
6348;SDS011;3207;42.648;23.406;2023-02-01T08:57:37;22.52;;;20.23;;
6348;SDS011;3207;42.648;23.406;2023-02-01T09:00:04;19.75;;;17.73;;
6348;SDS011;3207;42.648;23.406;2023-02-01T09:02:32;19.35;;;17.35;;
6348;SDS011;3207;42.648;23.406;2023-02-01T09:04:59;22.98;;;19.60;;
6348;SDS011;3207;42.648;23.406;2023-02-01T09:07:26;20.38;;;18.08;;
6348;SDS011;3207;42.648;23.406;2023-02-01T09:09:53;22.45;;;19.67;;
6348;SDS011;3207;42.648;23.406;2023-02-01T09:12:21;26.75;;;23.33;;
6348;SDS011;3207;42.648;23.406;2023-02-01T09:14:50;26.05;;;23.35;;
6348;SDS011;3207;42.648;23.406;2023-02-01T09:17:17;22.75;;;20.38;;
6348;SDS011;3207;42.648;23.406;2023-02-01T09:19:44;25.50;;;20.83;;
6348;SDS011;3207;42.648;23.406;2023-02-01T09:22:10;25.08;;;21.88;;
6348;SDS011;3207;42.648;23.406;2023-02-01T09:24:37;22.55;;;20.38;;
6348;SDS011;3207;42.648;23.406;2023-02-01T09:27:04;21.33;;;19.15;;
6348;SDS011;3207;42.648;23.406;2023-02-01T09:29:31;19.80;;;17.80;;
6348;SDS011;3207;42.648;23.406;2023-02-01T09:31:59;20.98;;;16.65;;
6348;SDS011;3207;42.648;23.406;2023-02-01T09:34:26;17.88;;;16.17;;
6348;SDS011;3207;42.648;23.406;2023-02-01T09:36:53;22.00;;;16.90;;
6348;SDS011;3207;42.648;23.406;2023-02-01T09:39:20;17.05;;;15.45;;
6348;SDS011;3207;42.648;23.406;2023-02-01T09:41:49;19.85;;;16.52;;
6348;SDS011;3207;42.648;23.406;2023-02-01T09:44:36;23.55;;;21.17;;
6348;SDS011;3207;42.648;23.406;2023-02-01T09:47:17;19.13;;;17.13;;
6348;SDS011;3207;42.648;23.406;2023-02-01T09:49:49;20.88;;;18.88;;
6348;SDS011;3207;42.648;23.406;2023-02-01T09:52:23;18.58;;;16.60;;
6348;SDS011;3207;42.648;23.406;2023-02-01T09:54:55;18.90;;;17.00;;
6348;SDS011;3207;42.648;23.406;2023-02-01T09:57:28;20.77;;;18.77;;
6348;SDS011;3207;42.648;23.406;2023-02-01T10:00:09;20.02;;;17.98;;
6348;SDS011;3207;42.648;23.406;2023-02-01T10:02:45;18.98;;;17.13;;
6348;SDS011;3207;42.648;23.406;2023-02-01T10:05:13;19.20;;;17.20;;
6348;SDS011;3207;42.648;23.406;2023-02-01T10:07:44;17.70;;;14.82;;
6348;SDS011;3207;42.648;23.406;2023-02-01T10:10:19;21.80;;;19.60;;
6348;SDS011;3207;42.648;23.406;2023-02-01T10:13:01;18.02;;;14.65;;
6348;SDS011;3207;42.648;23.406;2023-02-01T10:15:45;16.75;;;14.35;;
6348;SDS011;3207;42.648;23.406;2023-02-01T10:18:27;17.67;;;13.68;;
6348;SDS011;3207;42.648;23.406;2023-02-01T10:21:05;15.27;;;13.02;;
6348;SDS011;3207;42.648;23.406;2023-02-01T10:26:42;12.60;;;10.32;;
6348;SDS011;3207;42.648;23.406;2023-02-01T10:29:14;12.13;;;10.18;;
6348;SDS011;3207;42.648;23.406;2023-02-01T10:31:44;10.55;;;9.55;;
6348;SDS011;3207;42.648;23.406;2023-02-01T10:34:15;11.82;;;10.32;;
6348;SDS011;3207;42.648;23.406;2023-02-01T10:36:52;10.57;;;9.52;;
6348;SDS011;3207;42.648;23.406;2023-02-01T10:39:21;13.35;;;11.63;;
6348;SDS011;3207;42.648;23.406;2023-02-01T10:41:48;12.90;;;10.48;;
6348;SDS011;3207;42.648;23.406;2023-02-01T10:44:16;12.75;;;10.52;;
6348;SDS011;3207;42.648;23.406;2023-02-01T10:46:47;15.18;;;12.35;;
6348;SDS011;3207;42.648;23.406;2023-02-01T10:49:17;13.18;;;11.85;;
6348;SDS011;3207;42.648;23.406;2023-02-01T10:51:50;18.98;;;12.63;;
6348;SDS011;3207;42.648;23.406;2023-02-01T10:54:21;14.98;;;13.45;;
6348;SDS011;3207;42.648;23.406;2023-02-01T10:56:57;13.02;;;11.35;;
6348;SDS011;3207;42.648;23.406;2023-02-01T10:59:25;15.52;;;12.48;;
6348;SDS011;3207;42.648;23.406;2023-02-01T11:01:57;14.73;;;13.15;;
6348;SDS011;3207;42.648;23.406;2023-02-01T11:04:27;14.32;;;10.98;;
6348;SDS011;3207;42.648;23.406;2023-02-01T11:07:04;12.38;;;11.07;;
6348;SDS011;3207;42.648;23.406;2023-02-01T11:09:34;12.48;;;10.70;;
6348;SDS011;3207;42.648;23.406;2023-02-01T11:12:04;13.55;;;11.50;;
6348;SDS011;3207;42.648;23.406;2023-02-01T11:14:35;12.30;;;10.93;;
6348;SDS011;3207;42.648;23.406;2023-02-01T11:17:21;12.95;;;11.15;;
6348;SDS011;3207;42.648;23.406;2023-02-01T11:19:57;12.68;;;11.23;;
6348;SDS011;3207;42.648;23.406;2023-02-01T11:22:25;16.00;;;11.68;;
6348;SDS011;3207;42.648;23.406;2023-02-01T11:24:54;13.00;;;11.75;;
6348;SDS011;3207;42.648;23.406;2023-02-01T11:27:22;15.15;;;13.57;;
6348;SDS011;3207;42.648;23.406;2023-02-01T11:29:51;16.80;;;12.88;;
6348;SDS011;3207;42.648;23.406;2023-02-01T11:32:21;12.48;;;11.18;;
6348;SDS011;3207;42.648;23.406;2023-02-01T11:34:51;16.10;;;14.35;;
6348;SDS011;3207;42.648;23.406;2023-02-01T11:37:23;15.88;;;13.30;;
6348;SDS011;3207;42.648;23.406;2023-02-01T11:39:53;16.80;;;14.73;;
6348;SDS011;3207;42.648;23.406;2023-02-01T11:42:22;16.17;;;14.35;;
6348;SDS011;3207;42.648;23.406;2023-02-01T11:44:49;15.07;;;13.68;;
6348;SDS011;3207;42.648;23.406;2023-02-01T11:47:20;15.88;;;13.98;;
6348;SDS011;3207;42.648;23.406;2023-02-01T11:49:51;14.27;;;12.70;;
6348;SDS011;3207;42.648;23.406;2023-02-01T11:55:28;13.88;;;12.32;;
6348;SDS011;3207;42.648;23.406;2023-02-01T11:58:06;15.23;;;13.55;;
6348;SDS011;3207;42.648;23.406;2023-02-01T12:00:51;19.90;;;15.20;;
6348;SDS011;3207;42.648;23.406;2023-02-01T12:06:43;13.57;;;12.27;;
6348;SDS011;3207;42.648;23.406;2023-02-01T12:09:26;12.82;;;11.50;;
6348;SDS011;3207;42.648;23.406;2023-02-01T12:12:04;14.63;;;13.05;;
6348;SDS011;3207;42.648;23.406;2023-02-01T12:14:46;14.75;;;13.23;;
6348;SDS011;3207;42.648;23.406;2023-02-01T12:17:34;12.95;;;11.65;;
6348;SDS011;3207;42.648;23.406;2023-02-01T12:20:23;13.90;;;12.60;;
6348;SDS011;3207;42.648;23.406;2023-02-01T12:23:04;15.43;;;13.63;;
6348;SDS011;3207;42.648;23.406;2023-02-01T12:25:44;20.90;;;18.80;;
6348;SDS011;3207;42.648;23.406;2023-02-01T12:28:34;19.27;;;17.38;;
6348;SDS011;3207;42.648;23.406;2023-02-01T12:31:10;17.75;;;15.85;;
6348;SDS011;3207;42.648;23.406;2023-02-01T12:33:54;16.02;;;14.40;;
6348;SDS011;3207;42.648;23.406;2023-02-01T12:36:35;15.70;;;14.00;;
6348;SDS011;3207;42.648;23.406;2023-02-01T12:39:12;16.75;;;13.25;;
6348;SDS011;3207;42.648;23.406;2023-02-01T12:41:58;15.70;;;12.50;;
6348;SDS011;3207;42.648;23.406;2023-02-01T12:44:37;13.98;;;12.07;;
6348;SDS011;3207;42.648;23.406;2023-02-01T12:47:11;20.27;;;12.55;;
6348;SDS011;3207;42.648;23.406;2023-02-01T12:49:47;14.60;;;12.38;;
6348;SDS011;3207;42.648;23.406;2023-02-01T12:52:22;16.08;;;13.38;;
6348;SDS011;3207;42.648;23.406;2023-02-01T12:54:59;16.05;;;12.75;;
6348;SDS011;3207;42.648;23.406;2023-02-01T12:57:30;21.63;;;13.30;;
6348;SDS011;3207;42.648;23.406;2023-02-01T13:00:04;20.08;;;14.00;;
6348;SDS011;3207;42.648;23.406;2023-02-01T13:02:41;17.10;;;13.45;;
6348;SDS011;3207;42.648;23.406;2023-02-01T13:05:15;15.95;;;12.20;;
6348;SDS011;3207;42.648;23.406;2023-02-01T13:07:45;14.10;;;11.65;;
6348;SDS011;3207;42.648;23.406;2023-02-01T13:10:17;14.23;;;10.10;;
6348;SDS011;3207;42.648;23.406;2023-02-01T13:12:50;11.60;;;9.68;;
6348;SDS011;3207;42.648;23.406;2023-02-01T13:15:23;13.00;;;10.15;;
6348;SDS011;3207;42.648;23.406;2023-02-01T13:17:55;16.10;;;11.80;;
6348;SDS011;3207;42.648;23.406;2023-02-01T13:20:28;13.15;;;10.07;;
6348;SDS011;3207;42.648;23.406;2023-02-01T13:22:59;14.07;;;11.27;;
6348;SDS011;3207;42.648;23.406;2023-02-01T13:25:32;13.50;;;11.02;;
6348;SDS011;3207;42.648;23.406;2023-02-01T13:28:04;14.75;;;12.23;;
6348;SDS011;3207;42.648;23.406;2023-02-01T13:30:42;16.70;;;10.80;;
6348;SDS011;3207;42.648;23.406;2023-02-01T13:33:25;14.82;;;10.93;;
6348;SDS011;3207;42.648;23.406;2023-02-01T13:36:18;13.65;;;9.63;;
6348;SDS011;3207;42.648;23.406;2023-02-01T13:42:15;11.75;;;10.02;;
6348;SDS011;3207;42.648;23.406;2023-02-01T13:44:46;14.30;;;10.55;;
6348;SDS011;3207;42.648;23.406;2023-02-01T13:47:22;11.45;;;9.88;;
6348;SDS011;3207;42.648;23.406;2023-02-01T13:49:52;14.68;;;10.98;;
6348;SDS011;3207;42.648;23.406;2023-02-01T13:52:36;15.75;;;12.55;;
6348;SDS011;3207;42.648;23.406;2023-02-01T14:00:45;16.48;;;12.60;;
6348;SDS011;3207;42.648;23.406;2023-02-01T14:03:15;21.13;;;14.63;;
6348;SDS011;3207;42.648;23.406;2023-02-01T14:06:03;22.10;;;13.10;;
6348;SDS011;3207;42.648;23.406;2023-02-01T14:08:46;19.20;;;12.25;;
6348;SDS011;3207;42.648;23.406;2023-02-01T14:11:33;18.17;;;13.93;;
6348;SDS011;3207;42.648;23.406;2023-02-01T14:23:29;20.30;;;13.32;;
6348;SDS011;3207;42.648;23.406;2023-02-01T14:26:09;16.58;;;12.05;;
6348;SDS011;3207;42.648;23.406;2023-02-01T14:28:40;21.13;;;14.30;;
6348;SDS011;3207;42.648;23.406;2023-02-01T14:31:14;21.60;;;13.48;;
6348;SDS011;3207;42.648;23.406;2023-02-01T14:33:49;20.33;;;14.13;;
6348;SDS011;3207;42.648;23.406;2023-02-01T14:36:21;20.92;;;13.93;;
6348;SDS011;3207;42.648;23.406;2023-02-01T14:38:50;19.88;;;14.13;;
6348;SDS011;3207;42.648;23.406;2023-02-01T14:41:25;17.35;;;13.45;;
6348;SDS011;3207;42.648;23.406;2023-02-01T14:50:10;17.80;;;11.00;;
6348;SDS011;3207;42.648;23.406;2023-02-01T14:52:45;16.10;;;10.68;;
6348;SDS011;3207;42.648;23.406;2023-02-01T14:55:15;16.50;;;11.70;;
6348;SDS011;3207;42.648;23.406;2023-02-01T14:57:46;18.88;;;11.15;;
6348;SDS011;3207;42.648;23.406;2023-02-01T15:00:18;14.93;;;10.82;;
6348;SDS011;3207;42.648;23.406;2023-02-01T15:02:48;17.30;;;11.60;;
6348;SDS011;3207;42.648;23.406;2023-02-01T15:05:21;15.75;;;10.88;;
6348;SDS011;3207;42.648;23.406;2023-02-01T15:07:55;20.80;;;10.75;;
6348;SDS011;3207;42.648;23.406;2023-02-01T15:10:25;15.57;;;11.20;;
6348;SDS011;3207;42.648;23.406;2023-02-01T15:12:53;20.92;;;12.95;;
6348;SDS011;3207;42.648;23.406;2023-02-01T15:15:21;18.20;;;12.63;;
6348;SDS011;3207;42.648;23.406;2023-02-01T15:17:50;15.48;;;11.95;;
6348;SDS011;3207;42.648;23.406;2023-02-01T15:20:19;16.67;;;11.73;;
6348;SDS011;3207;42.648;23.406;2023-02-01T15:22:55;17.00;;;11.45;;
6348;SDS011;3207;42.648;23.406;2023-02-01T15:25:26;21.38;;;14.00;;
6348;SDS011;3207;42.648;23.406;2023-02-01T15:27:54;16.98;;;11.82;;
6348;SDS011;3207;42.648;23.406;2023-02-01T15:30:22;17.00;;;11.77;;
6348;SDS011;3207;42.648;23.406;2023-02-01T15:32:50;14.45;;;11.80;;
6348;SDS011;3207;42.648;23.406;2023-02-01T15:35:36;21.35;;;14.07;;